Time;durP1;ratioP1;P1;durP2;ratioP2;P2;SDS_P1;SDS_P2;PMS_P1;PMS_P2;Temp;Humidity;BMP_temperature;BMP_pressure;BME280_temperature;BME280_humidity;BME280_pressure;Samples;Min_cycle;Max_cycle;Signal;HPM_P1;HPM_P2
2023/08/12 00:01:38;;;;;;;10.05;5.40;;;14.20;99.90;;;;;;5075237;28;20200;-80
2023/08/12 00:04:09;;;;;;;8.77;5.18;;;14.20;99.90;;;;;;5074954;28;20237;-80
2023/08/12 00:06:40;;;;;;;9.05;4.90;;;14.20;99.90;;;;;;5074871;28;20193;-80
2023/08/12 00:09:14;;;;;;;8.88;4.88;;;14.30;99.90;;;;;;5074811;28;20231;-80
2023/08/12 00:11:45;;;;;;;6.68;4.20;;;14.40;99.90;;;;;;5074751;28;20245;-81
2023/08/12 00:14:16;;;;;;;10.63;4.72;;;14.50;99.90;;;;;;5074862;28;20223;-81
2023/08/12 00:16:47;;;;;;;8.52;5.15;;;14.60;99.90;;;;;;5071536;28;20200;-80
2023/08/12 00:19:18;;;;;;;10.15;4.60;;;14.80;99.90;;;;;;5054620;28;20221;-80
2023/08/12 00:21:48;;;;;;;6.72;4.00;;;14.90;99.90;;;;;;5054256;28;20202;-80
2023/08/12 00:24:21;;;;;;;8.38;3.90;;;15.10;99.90;;;;;;5054691;28;20186;-80
2023/08/12 00:26:52;;;;;;;8.82;4.38;;;15.20;99.90;;;;;;5061540;28;20204;-80
2023/08/12 00:29:22;;;;;;;8.15;4.25;;;15.30;99.90;;;;;;5057649;28;20208;-80
2023/08/12 00:31:54;;;;;;;6.25;3.88;;;15.40;99.90;;;;;;5054407;28;20221;-80
2023/08/12 00:34:25;;;;;;;9.00;4.38;;;15.50;99.90;;;;;;5054271;28;20218;-81
2023/08/12 00:36:55;;;;;;;6.32;3.75;;;15.70;99.90;;;;;;5054303;28;20194;-81
2023/08/12 00:39:28;;;;;;;8.95;3.90;;;15.80;99.90;;;;;;5054407;28;20705;-80
2023/08/12 00:41:59;;;;;;;7.10;3.90;;;15.90;99.90;;;;;;5054374;28;20199;-80
2023/08/12 00:44:30;;;;;;;6.70;3.97;;;16.00;99.90;;;;;;5053718;28;20194;-80
2023/08/12 00:47:01;;;;;;;7.85;4.53;;;16.10;99.90;;;;;;5054075;28;20292;-81
2023/08/12 00:49:32;;;;;;;9.27;4.57;;;16.20;99.90;;;;;;5054188;28;20193;-81
2023/08/12 00:52:04;;;;;;;6.85;3.50;;;16.30;99.90;;;;;;5053850;28;20647;-81
2023/08/12 00:54:36;;;;;;;7.43;3.70;;;16.40;99.90;;;;;;5054132;28;20228;-81
2023/08/12 00:57:08;;;;;;;9.48;3.63;;;16.50;99.90;;;;;;5054107;28;20189;-81
2023/08/12 00:59:40;;;;;;;7.57;3.55;;;16.70;99.90;;;;;;5053364;28;20201;-80
2023/08/12 01:02:11;;;;;;;8.57;3.50;;;16.70;99.90;;;;;;5058102;28;20292;-80
2023/08/12 01:04:42;;;;;;;6.07;3.40;;;16.80;99.90;;;;;;5073841;28;20243;-80
2023/08/12 01:07:12;;;;;;;6.60;3.40;;;16.90;99.90;;;;;;5073446;28;20211;-80
2023/08/12 01:09:45;;;;;;;8.25;3.90;;;17.10;99.90;;;;;;5073598;28;20201;-80
2023/08/12 01:12:20;;;;;;;7.38;3.40;;;17.20;99.90;;;;;;5073852;28;20189;-80
2023/08/12 01:14:59;;;;;;;6.00;2.90;;;17.30;99.90;;;;;;5073690;28;20231;-79
2023/08/12 01:17:31;;;;;;;5.95;2.70;;;17.20;99.90;;;;;;5073602;28;20185;-79
2023/08/12 01:20:05;;;;;;;7.05;3.03;;;17.30;99.90;;;;;;5071047;28;20641;-80
2023/08/12 01:22:41;;;;;;;6.72;3.20;;;17.50;99.90;;;;;;5073441;28;20200;-80
2023/08/12 01:25:14;;;;;;;4.63;2.60;;;17.80;99.90;;;;;;5073670;28;20197;-81
2023/08/12 01:27:45;;;;;;;4.40;2.70;;;17.80;99.90;;;;;;5073737;28;20284;-79
2023/08/12 01:30:17;;;;;;;4.13;2.50;;;17.90;99.90;;;;;;5073492;28;20199;-78
2023/08/12 01:33:04;;;;;;;6.50;2.75;;;18.00;99.90;;;;;;5073505;28;20193;-78
2023/08/12 01:35:40;;;;;;;6.53;2.47;;;18.10;99.90;;;;;;5073349;28;20601;-79
2023/08/12 01:38:13;;;;;;;4.97;2.45;;;18.10;99.90;;;;;;5073453;28;20185;-79
2023/08/12 01:40:48;;;;;;;5.47;2.15;;;18.30;99.90;;;;;;5073375;28;20196;-79
2023/08/12 01:43:19;;;;;;;6.00;2.30;;;18.40;99.90;;;;;;5073760;28;20546;-80
2023/08/12 01:45:50;;;;;;;4.88;2.00;;;18.60;99.90;;;;;;5073499;28;20188;-80
2023/08/12 01:48:23;;;;;;;5.95;2.03;;;18.70;99.90;;;;;;5073674;28;20207;-80
2023/08/12 01:50:53;;;;;;;3.67;1.73;;;18.80;99.90;;;;;;5073071;28;20196;-77
2023/08/12 01:53:24;;;;;;;5.38;2.25;;;18.90;99.90;;;;;;5073040;28;20231;-78
2023/08/12 01:55:57;;;;;;;5.78;2.30;;;19.00;99.90;;;;;;5073444;28;20193;-76
2023/08/12 01:58:28;;;;;;;5.38;2.22;;;19.00;99.90;;;;;;5073349;28;20618;-79
2023/08/12 02:00:59;;;;;;;5.00;2.22;;;18.90;99.90;;;;;;5073288;28;20242;-76
2023/08/12 02:03:29;;;;;;;6.55;2.42;;;19.10;99.90;;;;;;5072594;28;20232;-79
2023/08/12 02:06:00;;;;;;;4.47;2.10;;;19.30;99.90;;;;;;5073486;28;20203;-77
2023/08/12 02:08:31;;;;;;;4.97;2.28;;;19.50;99.90;;;;;;5063699;28;20201;-80
2023/08/12 02:11:04;;;;;;;6.55;2.10;;;19.60;99.90;;;;;;5054602;28;20193;-80
2023/08/12 02:13:35;;;;;;;4.70;2.10;;;19.60;99.90;;;;;;5056821;28;20201;-80
2023/08/12 02:16:06;;;;;;;6.15;2.55;;;19.70;99.90;;;;;;5056943;28;20556;-79
2023/08/12 02:18:38;;;;;;;4.35;2.30;;;19.70;99.90;;;;;;5056836;28;20645;-78
2023/08/12 02:21:09;;;;;;;5.40;2.38;;;19.90;99.90;;;;;;5056994;28;20193;-76
2023/08/12 02:23:40;;;;;;;3.17;2.00;;;19.90;99.90;;;;;;5056932;28;20192;-78
2023/08/12 02:26:12;;;;;;;5.53;2.30;;;19.90;99.90;;;;;;5056827;28;20194;-78
2023/08/12 02:28:43;;;;;;;6.28;2.15;;;19.90;99.90;;;;;;5056796;28;20277;-77
2023/08/12 02:31:14;;;;;;;3.42;1.98;;;19.80;99.90;;;;;;5056828;28;20190;-79
2023/08/12 02:33:45;;;;;;;4.07;2.13;;;19.80;99.90;;;;;;5056475;28;22108;-78
2023/08/12 02:36:16;;;;;;;4.00;2.15;;;19.80;99.90;;;;;;5056741;28;20209;-79
2023/08/12 02:38:47;;;;;;;4.07;1.90;;;19.80;99.90;;;;;;5056386;28;20213;-79
2023/08/12 02:41:20;;;;;;;3.60;2.13;;;19.80;99.90;;;;;;5056603;28;20196;-78
2023/08/12 02:43:51;;;;;;;6.15;1.80;;;19.80;99.90;;;;;;5056683;28;20193;-78
2023/08/12 02:46:22;;;;;;;2.95;1.85;;;19.80;99.90;;;;;;5072416;28;20197;-78
2023/08/12 02:48:53;;;;;;;8.07;2.67;;;19.70;99.90;;;;;;5076238;28;20629;-79
2023/08/12 02:51:23;;;;;;;6.22;2.40;;;19.50;99.90;;;;;;5076475;28;20196;-79
2023/08/12 02:53:54;;;;;;;4.68;1.77;;;19.40;99.90;;;;;;5076368;28;20287;-80
2023/08/12 02:56:27;;;;;;;5.15;1.60;;;19.30;99.90;;;;;;5076219;28;20279;-79
2023/08/12 02:58:58;;;;;;;4.25;1.67;;;19.20;99.90;;;;;;5076249;28;20223;-79
2023/08/12 03:01:28;;;;;;;4.30;1.63;;;19.20;99.90;;;;;;5075905;28;20196;-79
2023/08/12 03:03:59;;;;;;;4.90;1.40;;;19.20;99.90;;;;;;5075921;28;20323;-79
2023/08/12 03:06:30;;;;;;;2.85;1.50;;;19.40;99.90;;;;;;5076124;28;20224;-78
2023/08/12 03:09:01;;;;;;;1.67;1.27;;;19.70;99.90;;;;;;5076272;28;20185;-79
2023/08/12 03:11:34;;;;;;;1.90;1.38;;;19.80;99.90;;;;;;5076120;28;20189;-78
2023/08/12 03:14:05;;;;;;;2.42;1.48;;;20.00;99.90;;;;;;5075997;28;20707;-79
2023/08/12 03:16:36;;;;;;;3.92;1.60;;;20.00;99.90;;;;;;5075727;28;20203;-78
2023/08/12 03:19:07;;;;;;;4.00;1.60;;;20.10;99.90;;;;;;5076255;28;20197;-78
2023/08/12 03:21:38;;;;;;;3.47;1.45;;;20.00;99.90;;;;;;5075353;28;20185;-80
2023/08/12 03:24:10;;;;;;;4.93;1.60;;;19.90;99.90;;;;;;5075620;28;20193;-80
2023/08/12 03:26:43;;;;;;;2.92;1.35;;;19.80;99.90;;;;;;5075907;28;20637;-78
2023/08/12 03:29:14;;;;;;;3.78;1.45;;;19.60;99.90;;;;;;5075839;28;20189;-80
2023/08/12 03:31:45;;;;;;;3.88;1.30;;;19.40;99.90;;;;;;5075577;28;20188;-79
2023/08/12 03:34:16;;;;;;;3.20;1.55;;;19.20;99.90;;;;;;5075723;28;20217;-78
2023/08/12 03:36:48;;;;;;;2.25;1.40;;;19.10;99.90;;;;;;5075486;28;20300;-79
2023/08/12 03:39:19;;;;;;;2.67;1.48;;;19.00;99.90;;;;;;5075411;28;20275;-79
2023/08/12 03:41:52;;;;;;;4.35;1.50;;;18.90;99.90;;;;;;5075287;28;20185;-77
2023/08/12 03:44:23;;;;;;;3.22;1.80;;;18.90;99.90;;;;;;5075502;28;20223;-77
2023/08/12 03:46:55;;;;;;;5.22;2.00;;;18.80;99.90;;;;;;5075598;28;20195;-79
2023/08/12 03:49:26;;;;;;;3.63;1.60;;;18.70;99.90;;;;;;5075577;28;20193;-78
2023/08/12 03:51:57;;;;;;;2.88;1.65;;;18.70;99.90;;;;;;5075302;28;20200;-76
2023/08/12 03:54:28;;;;;;;3.35;1.35;;;18.70;99.90;;;;;;5075548;28;20676;-79
2023/08/12 03:57:01;;;;;;;3.58;1.60;;;18.80;99.90;;;;;;5075147;28;20189;-76
2023/08/12 03:59:32;;;;;;;4.63;1.70;;;18.80;99.90;;;;;;5075024;28;20196;-80
2023/08/12 04:02:03;;;;;;;5.72;1.85;;;19.00;99.90;;;;;;5075208;28;20199;-79
2023/08/12 04:04:35;;;;;;;3.50;1.60;;;19.20;99.90;;;;;;5075004;28;20569;-79
2023/08/12 04:07:06;;;;;;;9.48;3.03;;;19.40;99.90;;;;;;5074792;28;20568;-76
2023/08/12 04:09:37;;;;;;;4.25;2.00;;;19.60;99.90;;;;;;5075210;28;20193;-78
2023/08/12 04:12:10;;;;;;;4.20;1.80;;;19.70;99.90;;;;;;5074869;28;20195;-79
2023/08/12 04:14:42;;;;;;;2.92;1.60;;;19.70;99.90;;;;;;5074637;28;20296;-79
2023/08/12 04:17:13;;;;;;;2.97;1.40;;;19.70;99.90;;;;;;5074967;28;20186;-78
2023/08/12 04:19:44;;;;;;;2.15;1.23;;;19.80;99.90;;;;;;5068707;28;20284;-78
2023/08/12 04:22:16;;;;;;;1.88;1.20;;;19.90;99.90;;;;;;5066494;28;20197;-78
2023/08/12 04:24:47;;;;;;;4.78;1.45;;;20.00;99.90;;;;;;5069689;28;20675;-80
2023/08/12 04:27:21;;;;;;;3.28;1.42;;;20.00;99.90;;;;;;5071038;28;20698;-79
2023/08/12 04:29:52;;;;;;;2.95;1.30;;;19.90;99.90;;;;;;5070551;28;20193;-79
2023/08/12 04:32:23;;;;;;;2.72;1.25;;;19.70;99.90;;;;;;5073920;28;20189;-79
2023/08/12 04:34:54;;;;;;;2.03;0.98;;;19.60;99.90;;;;;;5054250;28;20296;-80
2023/08/12 04:37:26;;;;;;;2.03;1.20;;;19.60;99.90;;;;;;5054573;28;20193;-80
2023/08/12 04:39:57;;;;;;;2.83;1.30;;;19.50;99.90;;;;;;5069929;28;20288;-77
2023/08/12 04:42:30;;;;;;;4.03;1.38;;;19.60;99.90;;;;;;5065825;28;20197;-80
2023/08/12 04:45:03;;;;;;;2.80;1.10;;;19.80;99.90;;;;;;5061248;28;20206;-80
2023/08/12 04:47:34;;;;;;;3.20;1.42;;;20.00;99.90;;;;;;5073050;28;20676;-79
2023/08/12 04:50:06;;;;;;;3.25;1.35;;;20.20;99.90;;;;;;5072049;28;20280;-79
2023/08/12 04:52:37;;;;;;;3.88;1.27;;;20.30;99.90;;;;;;5069573;28;20217;-76
2023/08/12 04:55:10;;;;;;;3.08;1.30;;;20.40;99.90;;;;;;5054126;28;20321;-80
2023/08/12 04:57:43;;;;;;;2.97;1.20;;;20.60;99.90;;;;;;5073676;28;20250;-80
2023/08/12 05:00:16;;;;;;;1.65;0.98;;;20.70;99.90;;;;;;5069101;28;20254;-80
2023/08/12 05:02:47;;;;;;;2.05;1.10;;;20.80;99.90;;;;;;5066451;28;20292;-78
2023/08/12 05:05:19;;;;;;;2.05;1.10;;;20.70;99.90;;;;;;5073403;28;20300;-79
2023/08/12 05:07:51;;;;;;;2.22;1.08;;;20.80;99.90;;;;;;5064162;28;20196;-79
2023/08/12 05:10:22;;;;;;;1.05;0.80;;;20.80;99.90;;;;;;5067935;28;20204;-80
2023/08/12 05:12:56;;;;;;;1.80;0.90;;;20.80;99.90;;;;;;5066020;28;20282;-79
2023/08/12 05:15:27;;;;;;;3.38;1.02;;;20.70;99.90;;;;;;5053359;28;20239;-80
2023/08/12 05:17:59;;;;;;;2.30;1.13;;;20.70;99.90;;;;;;5055924;28;20693;-80
2023/08/12 05:20:31;;;;;;;1.90;0.90;;;20.60;99.90;;;;;;5071300;28;20565;-79
2023/08/12 05:23:02;;;;;;;1.75;0.80;;;20.70;99.90;;;;;;5072191;28;20200;-80
2023/08/12 05:25:34;;;;;;;4.40;0.98;;;20.70;99.90;;;;;;5058212;28;20228;-79
2023/08/12 05:28:08;;;;;;;3.38;1.00;;;20.60;99.90;;;;;;5058248;28;20217;-78
2023/08/12 05:30:40;;;;;;;2.00;0.90;;;20.70;99.90;;;;;;5061243;28;20201;-80
2023/08/12 05:33:11;;;;;;;3.67;1.13;;;20.70;99.90;;;;;;5063831;28;20229;-79
2023/08/12 05:35:43;;;;;;;5.68;1.10;;;20.60;99.90;;;;;;5066514;28;20232;-79
2023/08/12 05:38:15;;;;;;;3.13;1.30;;;20.30;99.90;;;;;;5057142;28;20196;-79
2023/08/12 05:40:47;;;;;;;2.55;1.27;;;20.00;99.90;;;;;;5067098;28;20612;-78
2023/08/12 05:43:20;;;;;;;3.42;1.40;;;19.70;99.90;;;;;;5053205;28;20220;-79
2023/08/12 05:45:53;;;;;;;3.15;1.20;;;19.50;99.90;;;;;;5050763;28;20201;-80
2023/08/12 05:48:24;;;;;;;2.47;1.30;;;19.10;99.90;;;;;;5052372;28;20194;-78
2023/08/12 05:50:56;;;;;;;2.83;1.30;;;18.90;99.90;;;;;;5052692;28;20194;-79
2023/08/12 05:53:28;;;;;;;4.18;1.42;;;18.70;99.90;;;;;;5063429;28;20225;-79
2023/08/12 05:55:59;;;;;;;5.43;1.33;;;18.50;99.90;;;;;;5057725;28;20218;-80
2023/08/12 05:58:34;;;;;;;3.10;1.30;;;18.40;99.90;;;;;;5071638;28;20272;-79
2023/08/12 06:01:06;;;;;;;3.63;1.30;;;18.30;99.90;;;;;;5066674;28;20199;-78
2023/08/12 06:03:37;;;;;;;3.17;1.30;;;18.20;99.90;;;;;;5055049;28;20237;-79
2023/08/12 06:06:09;;;;;;;3.13;1.50;;;18.00;99.90;;;;;;5053518;28;20196;-78
2023/08/12 06:08:41;;;;;;;4.15;1.63;;;18.00;99.90;;;;;;5066261;28;20199;-79
2023/08/12 06:11:12;;;;;;;4.95;1.30;;;17.90;99.90;;;;;;5052987;28;20657;-78
2023/08/12 06:13:46;;;;;;;2.53;1.50;;;17.90;99.90;;;;;;5052191;28;20661;-77
2023/08/12 06:16:18;;;;;;;4.47;1.42;;;17.80;99.90;;;;;;5066207;28;20263;-79
2023/08/12 06:18:49;;;;;;;3.10;1.48;;;17.80;99.90;;;;;;5061563;28;20197;-76
2023/08/12 06:21:21;;;;;;;4.30;1.50;;;17.70;99.90;;;;;;5061702;28;20201;-79
2023/08/12 06:23:53;;;;;;;4.40;1.70;;;17.70;99.90;;;;;;5064470;28;20228;-76
2023/08/12 06:26:24;;;;;;;6.80;1.77;;;17.70;99.90;;;;;;5066832;28;20200;-77
2023/08/12 06:28:58;;;;;;;7.07;2.00;;;17.60;99.90;;;;;;5058222;28;20197;-79
2023/08/12 06:31:30;;;;;;;4.38;1.83;;;17.60;99.90;;;;;;5066758;28;20203;-78
2023/08/12 06:34:01;;;;;;;5.25;1.40;;;17.50;99.90;;;;;;5069130;28;20209;-75
2023/08/12 06:36:33;;;;;;;5.20;2.00;;;17.50;99.90;;;;;;5069126;28;20228;-76
2023/08/12 06:39:05;;;;;;;2.83;1.60;;;17.40;99.90;;;;;;5067595;28;20229;-76
2023/08/12 06:41:37;;;;;;;3.35;1.73;;;17.30;99.90;;;;;;5065208;28;20284;-76
2023/08/12 06:44:11;;;;;;;6.32;1.73;;;17.20;99.90;;;;;;5072719;28;20193;-74
2023/08/12 06:46:42;;;;;;;3.35;1.80;;;17.20;99.90;;;;;;5062037;28;20665;-74
2023/08/12 06:49:14;;;;;;;3.70;1.80;;;17.10;99.90;;;;;;5055807;28;20247;-77
2023/08/12 06:51:46;;;;;;;3.85;1.50;;;17.10;99.90;;;;;;5056104;28;20255;-72
2023/08/12 06:54:18;;;;;;;3.38;1.30;;;17.10;99.90;;;;;;5068612;28;20284;-74
2023/08/12 06:56:49;;;;;;;2.20;1.10;;;17.00;99.90;;;;;;5063133;28;20232;-75
2023/08/12 06:59:23;;;;;;;3.13;1.70;;;17.00;99.90;;;;;;5055750;28;20243;-74
2023/08/12 07:01:54;;;;;;;2.63;1.17;;;16.90;99.90;;;;;;5063797;28;20196;-74
2023/08/12 07:04:26;;;;;;;4.45;1.48;;;16.80;99.90;;;;;;5071379;28;20319;-76
2023/08/12 07:06:58;;;;;;;3.95;1.60;;;16.80;99.90;;;;;;5063189;28;20914;-74
2023/08/12 07:09:30;;;;;;;5.90;1.60;;;16.80;99.90;;;;;;5060732;28;20243;-74
2023/08/12 07:12:01;;;;;;;4.97;1.63;;;16.80;99.90;;;;;;5066019;28;20190;-74
2023/08/12 07:14:35;;;;;;;4.38;1.70;;;16.70;99.90;;;;;;5058513;28;20214;-76
2023/08/12 07:17:07;;;;;;;4.55;1.60;;;16.70;99.90;;;;;;5074484;28;20223;-76
2023/08/12 07:19:39;;;;;;;5.43;2.08;;;16.70;99.90;;;;;;5070124;28;20212;-73
2023/08/12 07:22:10;;;;;;;5.55;1.85;;;16.60;99.90;;;;;;5058885;28;20197;-76
2023/08/12 07:24:42;;;;;;;3.45;1.80;;;16.60;99.90;;;;;;5060418;28;20193;-76
2023/08/12 07:27:13;;;;;;;5.00;1.70;;;16.60;99.90;;;;;;5069894;28;20664;-74
2023/08/12 07:29:48;;;;;;;2.17;1.35;;;16.50;99.90;;;;;;5072575;28;20209;-73
2023/08/12 07:32:20;;;;;;;3.90;1.63;;;16.50;99.90;;;;;;5064008;28;20271;-74
2023/08/12 07:34:52;;;;;;;4.90;1.50;;;16.50;99.90;;;;;;5062736;28;20197;-74
2023/08/12 07:37:23;;;;;;;3.15;1.65;;;16.40;99.90;;;;;;5070297;28;20255;-78
2023/08/12 07:39:55;;;;;;;3.13;1.45;;;16.40;99.90;;;;;;5069047;28;20227;-79
2023/08/12 07:42:27;;;;;;;3.72;1.40;;;16.40;99.90;;;;;;5066492;28;20201;-80
2023/08/12 07:45:00;;;;;;;2.63;1.20;;;16.40;99.90;;;;;;5065509;28;20428;-79
2023/08/12 07:47:32;;;;;;;4.13;1.42;;;16.30;99.90;;;;;;5067944;28;20708;-79
2023/08/12 07:50:04;;;;;;;4.18;1.38;;;16.30;99.90;;;;;;5060743;28;20255;-79
2023/08/12 07:52:36;;;;;;;3.58;1.20;;;16.30;99.90;;;;;;5071421;28;20225;-80
2023/08/12 07:55:08;;;;;;;4.10;1.40;;;16.30;99.90;;;;;;5060554;28;20201;-78
2023/08/12 07:57:40;;;;;;;17.05;11.05;;;16.30;99.90;;;;;;5068747;28;20236;-79
2023/08/12 08:00:14;;;;;;;167.70;107.70;;;16.30;99.90;;;;;;5063632;28;20197;-81
2023/08/12 08:02:49;;;;;;;32.15;21.48;;;16.20;99.90;;;;;;5065945;28;20612;-81
2023/08/12 08:05:20;;;;;;;8.35;4.10;;;16.20;99.90;;;;;;5071818;28;20192;-80
2023/08/12 08:07:52;;;;;;;5.05;2.20;;;16.20;99.90;;;;;;5059774;28;20197;-81
2023/08/12 08:10:24;;;;;;;6.82;3.28;;;16.10;99.90;;;;;;5059288;28;20201;-81
2023/08/12 08:12:55;;;;;;;6.05;2.67;;;16.10;99.90;;;;;;5063310;28;20211;-81
2023/08/12 08:15:29;;;;;;;6.13;3.70;;;16.10;99.90;;;;;;5072548;28;22082;-81
2023/08/12 08:18:01;;;;;;;5.50;2.47;;;16.00;99.90;;;;;;5066031;28;20202;-80
2023/08/12 08:20:33;;;;;;;4.13;2.15;;;16.00;99.90;;;;;;5062122;28;20204;-80
2023/08/12 08:23:04;;;;;;;5.18;1.90;;;16.00;99.90;;;;;;5071257;28;20200;-81
2023/08/12 08:25:36;;;;;;;5.95;2.25;;;16.00;99.90;;;;;;5087161;28;20223;-81
2023/08/12 08:28:08;;;;;;;4.75;2.00;;;16.00;99.90;;;;;;5076454;28;20231;-81
2023/08/12 08:30:41;;;;;;;5.72;2.13;;;16.00;99.90;;;;;;5065282;28;20201;-81
2023/08/12 08:33:14;;;;;;;6.28;2.47;;;15.90;99.90;;;;;;5069477;28;20204;-81
2023/08/12 08:35:45;;;;;;;4.57;2.20;;;16.00;99.90;;;;;;5059038;28;20216;-79
2023/08/12 08:38:17;;;;;;;5.22;2.22;;;15.90;99.90;;;;;;5062764;28;20200;-79
2023/08/12 08:40:49;;;;;;;4.80;2.50;;;15.90;99.90;;;;;;5074157;28;20238;-81
2023/08/12 08:43:24;;;;;;;5.15;2.38;;;15.90;99.90;;;;;;5068950;28;20192;-80
2023/08/12 08:45:59;;;;;;;8.43;2.45;;;15.90;99.90;;;;;;5064649;28;20562;-79
2023/08/12 08:48:32;;;;;;;5.82;2.40;;;15.90;99.90;;;;;;5061739;28;20609;-80
2023/08/12 08:51:05;;;;;;;6.35;2.30;;;15.80;99.90;;;;;;5067631;28;20623;-79
2023/08/12 08:53:38;;;;;;;5.30;2.55;;;15.80;99.90;;;;;;5068593;28;20207;-79
2023/08/12 08:56:11;;;;;;;5.90;2.33;;;15.80;99.90;;;;;;5059432;28;20228;-78
2023/08/12 08:58:43;;;;;;;4.90;2.50;;;15.80;99.90;;;;;;5064509;28;20287;-80
2023/08/12 09:01:22;;;;;;;6.53;2.30;;;15.80;99.90;;;;;;5073931;28;20262;-80
2023/08/12 09:03:56;;;;;;;5.95;2.60;;;15.80;99.90;;;;;;5073042;28;20695;-79
2023/08/12 09:06:28;;;;;;;6.93;2.63;;;15.80;99.90;;;;;;5063746;28;20198;-80
2023/08/12 09:09:00;;;;;;;5.45;2.50;;;15.80;99.90;;;;;;5058775;28;20201;-80
2023/08/12 09:11:32;;;;;;;4.78;2.20;;;15.80;99.90;;;;;;5065011;28;20254;-81
2023/08/12 09:14:04;;;;;;;6.18;2.75;;;15.80;99.90;;;;;;5067100;28;20243;-79
2023/08/12 09:16:38;;;;;;;5.28;2.40;;;15.70;99.90;;;;;;5067744;28;20307;-80
2023/08/12 09:19:09;;;;;;;4.78;2.30;;;15.70;99.90;;;;;;5065884;28;20228;-80
2023/08/12 09:21:41;;;;;;;5.13;2.28;;;15.70;99.90;;;;;;5061977;28;20194;-75
2023/08/12 09:24:13;;;;;;;6.22;2.70;;;15.70;99.90;;;;;;5064617;28;20298;-79
2023/08/12 09:26:47;;;;;;;4.40;2.80;;;15.70;99.90;;;;;;5067741;28;20193;-80
2023/08/12 09:29:18;;;;;;;7.53;2.78;;;15.70;99.90;;;;;;5072567;28;20200;-80
2023/08/12 09:31:51;;;;;;;5.75;2.58;;;15.70;99.90;;;;;;5071755;28;20242;-80
2023/08/12 09:34:22;;;;;;;5.25;2.70;;;15.70;99.90;;;;;;5073255;28;20212;-81
2023/08/12 09:36:53;;;;;;;8.32;2.92;;;15.60;99.90;;;;;;5058101;28;20681;-77
2023/08/12 09:39:24;;;;;;;6.13;2.50;;;15.50;99.90;;;;;;5062387;28;20200;-81
2023/08/12 09:41:55;;;;;;;4.95;2.60;;;15.50;99.90;;;;;;5063706;28;20193;-80
2023/08/12 09:44:26;;;;;;;5.13;2.92;;;15.50;99.90;;;;;;5067564;28;20208;-79
2023/08/12 09:47:03;;;;;;;4.15;2.50;;;15.40;99.90;;;;;;5059146;28;20201;-80
2023/08/12 09:49:34;;;;;;;5.57;2.97;;;15.40;99.90;;;;;;5055713;28;20279;-80
2023/08/12 09:52:05;;;;;;;7.78;2.80;;;15.40;99.90;;;;;;5071819;28;20220;-80
2023/08/12 09:54:37;;;;;;;7.50;2.88;;;15.40;99.90;;;;;;5057346;28;20658;-80
2023/08/12 09:57:11;;;;;;;5.57;3.00;;;15.40;99.90;;;;;;5067943;28;20685;-80
2023/08/12 09:59:44;;;;;;;5.88;3.00;;;15.30;99.90;;;;;;5066713;28;20215;-80
2023/08/12 10:02:20;;;;;;;5.20;2.90;;;15.30;99.90;;;;;;5066138;28;20669;-80
2023/08/12 10:04:57;;;;;;;6.05;3.05;;;15.30;99.90;;;;;;5057112;28;20263;-78
2023/08/12 10:07:29;;;;;;;5.45;3.10;;;15.20;99.90;;;;;;5065416;28;20667;-79
2023/08/12 10:10:05;;;;;;;6.47;3.10;;;15.10;99.90;;;;;;5054301;28;22117;-80
2023/08/12 10:12:38;;;;;;;7.88;3.30;;;15.10;99.90;;;;;;5057803;28;20197;-80
2023/08/12 10:15:11;;;;;;;5.85;3.05;;;15.00;99.90;;;;;;5066905;28;20207;-80
2023/08/12 10:17:48;;;;;;;4.20;3.10;;;15.00;99.90;;;;;;5054113;28;20296;-79
2023/08/12 10:20:24;;;;;;;6.90;3.67;;;15.00;99.90;;;;;;5064509;28;20277;-81
2023/08/12 10:22:56;;;;;;;7.63;3.53;;;15.00;99.90;;;;;;5065788;28;20648;-80
2023/08/12 10:25:32;;;;;;;6.32;3.38;;;14.90;99.90;;;;;;5058815;28;20197;-78
2023/08/12 10:28:03;;;;;;;6.22;3.30;;;14.90;99.90;;;;;;5065485;28;20665;-80
2023/08/12 10:30:34;;;;;;;5.03;3.47;;;14.80;99.90;;;;;;5055560;28;20658;-80
2023/08/12 10:33:07;;;;;;;10.07;4.25;;;14.80;99.90;;;;;;5056903;28;20698;-79
2023/08/12 10:35:48;;;;;;;6.10;3.42;;;14.80;99.90;;;;;;5073157;28;20284;-80
2023/08/12 10:38:21;;;;;;;9.48;4.05;;;14.80;99.90;;;;;;5071871;28;20218;-80
2023/08/12 10:40:52;;;;;;;8.32;4.13;;;14.70;99.90;;;;;;5059326;28;20202;-80
2023/08/12 10:43:23;;;;;;;8.30;4.35;;;14.70;99.90;;;;;;5067375;28;20200;-80
2023/08/12 10:45:57;;;;;;;7.65;4.47;;;14.70;99.90;;;;;;5072782;28;20207;-79
2023/08/12 10:48:30;;;;;;;8.48;4.60;;;14.70;99.90;;;;;;5068722;28;20193;-80
2023/08/12 10:51:04;;;;;;;9.82;4.20;;;14.70;99.90;;;;;;5069645;28;20203;-79
2023/08/12 10:53:36;;;;;;;6.70;4.35;;;14.60;99.90;;;;;;5072801;28;20240;-81
2023/08/12 10:56:07;;;;;;;7.63;4.32;;;14.60;99.90;;;;;;5071015;28;20193;-77
2023/08/12 10:58:48;;;;;;;8.60;4.70;;;14.50;99.90;;;;;;5055782;28;20197;-80
2023/08/12 11:01:21;;;;;;;6.07;3.80;;;14.50;99.90;;;;;;5058868;28;20205;-80
2023/08/12 11:03:54;;;;;;;9.20;4.70;;;14.40;99.90;;;;;;5070230;28;20235;-77
2023/08/12 11:06:25;;;;;;;8.45;4.50;;;14.40;99.90;;;;;;5068553;28;20197;-79
2023/08/12 11:08:59;;;;;;;7.03;4.07;;;14.40;99.90;;;;;;5057255;28;20676;-74
2023/08/12 11:11:30;;;;;;;9.23;4.30;;;14.40;99.90;;;;;;5075877;28;20204;-80
2023/08/12 11:14:01;;;;;;;8.10;4.00;;;14.30;99.90;;;;;;5066882;28;20204;-77
2023/08/12 11:16:40;;;;;;;8.35;4.63;;;14.30;99.90;;;;;;5073292;28;20238;-80
2023/08/12 11:19:12;;;;;;;6.78;4.32;;;14.20;99.90;;;;;;5062714;28;20275;-79
2023/08/12 11:21:44;;;;;;;7.95;3.53;;;14.20;99.90;;;;;;5061058;28;20673;-76
2023/08/12 11:24:15;;;;;;;7.78;4.03;;;14.20;99.90;;;;;;5060963;28;20285;-79
2023/08/12 11:26:48;;;;;;;8.02;4.05;;;14.10;99.90;;;;;;5069265;28;20200;-79
2023/08/12 11:29:19;;;;;;;6.88;3.50;;;14.00;99.90;;;;;;5063068;28;20268;-79
2023/08/12 11:31:50;;;;;;;7.68;3.67;;;14.00;99.90;;;;;;5069444;28;20246;-79
2023/08/12 11:34:23;;;;;;;8.43;3.60;;;14.00;99.90;;;;;;5071242;28;20560;-72
2023/08/12 11:36:53;;;;;;;7.25;3.90;;;14.00;99.90;;;;;;5072369;28;20240;-72
2023/08/12 11:39:28;;;;;;;6.85;3.33;;;14.00;99.90;;;;;;5070250;28;20193;-73
2023/08/12 11:42:00;;;;;;;7.03;3.47;;;14.00;99.90;;;;;;5058676;28;20215;-73
2023/08/12 11:44:31;;;;;;;10.07;3.80;;;14.00;99.90;;;;;;5073386;28;20204;-73
2023/08/12 11:47:02;;;;;;;6.00;3.70;;;13.90;99.90;;;;;;5075285;28;20561;-73
2023/08/12 11:49:34;;;;;;;6.72;3.30;;;13.90;99.90;;;;;;5060212;28;20189;-73
2023/08/12 11:52:06;;;;;;;8.13;3.60;;;13.90;99.90;;;;;;5065621;28;20292;-73
2023/08/12 11:54:37;;;;;;;5.00;2.85;;;13.90;99.90;;;;;;5067735;28;20193;-73
2023/08/12 11:57:08;;;;;;;5.47;3.00;;;13.90;99.90;;;;;;5072731;28;20220;-75
2023/08/12 11:59:39;;;;;;;4.40;2.90;;;14.00;99.90;;;;;;5063341;28;20503;-77
2023/08/12 12:02:12;;;;;;;7.22;2.95;;;14.00;99.90;;;;;;5066617;28;20212;-75
2023/08/12 12:04:47;;;;;;;5.15;2.83;;;14.00;99.90;;;;;;5059883;28;20259;-73
2023/08/12 12:07:25;;;;;;;6.30;2.67;;;14.10;99.90;;;;;;5067391;28;20192;-73
2023/08/12 12:09:56;;;;;;;5.88;3.08;;;14.10;99.90;;;;;;5060519;28;20194;-74
2023/08/12 12:12:30;;;;;;;6.60;3.00;;;14.00;99.90;;;;;;5053745;28;20193;-72
2023/08/12 12:15:01;;;;;;;6.55;3.00;;;14.00;99.90;;;;;;5054424;28;20193;-72
2023/08/12 12:17:32;;;;;;;4.10;2.63;;;14.00;99.90;;;;;;5052983;28;20233;-73
2023/08/12 12:20:05;;;;;;;5.00;2.90;;;14.00;99.90;;;;;;5057898;28;20197;-72
2023/08/12 12:22:36;;;;;;;7.15;2.90;;;13.90;99.90;;;;;;5059454;28;20197;-72
2023/08/12 12:25:11;;;;;;;6.15;2.88;;;13.90;99.90;;;;;;5062644;28;20197;-75
2023/08/12 12:27:42;;;;;;;6.97;3.20;;;13.90;99.90;;;;;;5056268;28;20576;-81
2023/08/12 12:30:15;;;;;;;5.40;2.70;;;13.90;99.90;;;;;;5062924;28;20190;-80
2023/08/12 12:32:46;;;;;;;4.90;2.42;;;13.90;99.90;;;;;;5054454;28;20189;-80
2023/08/12 12:35:18;;;;;;;5.40;2.95;;;13.90;99.90;;;;;;5061721;28;20619;-81
2023/08/12 12:37:49;;;;;;;6.95;2.95;;;13.90;99.90;;;;;;5074147;28;20213;-81
2023/08/12 12:40:20;;;;;;;5.72;2.95;;;13.80;99.90;;;;;;5071542;28;20190;-80
2023/08/12 12:42:50;;;;;;;5.50;2.70;;;13.70;99.90;;;;;;5061311;28;20201;-80
2023/08/12 12:45:21;;;;;;;6.50;2.50;;;13.70;99.90;;;;;;5064921;28;20197;-80
2023/08/12 12:47:52;;;;;;;5.28;2.50;;;13.70;99.90;;;;;;5056846;28;20201;-80
2023/08/12 12:50:25;;;;;;;5.95;2.58;;;13.60;99.90;;;;;;5063547;28;20546;-80
2023/08/12 12:52:55;;;;;;;4.57;2.20;;;13.60;99.90;;;;;;5068823;28;20220;-80
2023/08/12 12:55:26;;;;;;;4.30;2.10;;;13.70;99.90;;;;;;5053264;28;20562;-79
2023/08/12 12:57:57;;;;;;;5.18;2.53;;;13.60;99.90;;;;;;5056555;28;20222;-77
2023/08/12 13:00:28;;;;;;;3.97;2.42;;;13.70;99.90;;;;;;5057878;28;20201;-81
2023/08/12 13:02:59;;;;;;;5.40;2.55;;;13.60;99.90;;;;;;5070407;28;20235;-79
2023/08/12 13:05:31;;;;;;;6.72;2.63;;;13.60;99.90;;;;;;5062214;28;20193;-81
2023/08/12 13:08:02;;;;;;;4.85;2.58;;;13.50;99.90;;;;;;5073709;28;20204;-80
2023/08/12 13:10:33;;;;;;;7.10;2.65;;;13.40;99.90;;;;;;5073901;28;20193;-80